Time;durP1;ratioP1;P1;durP2;ratioP2;P2;SDS_P1;SDS_P2;PMS_P1;PMS_P2;Temp;Humidity;BMP_temperature;BMP_pressure;BME280_temperature;BME280_humidity;BME280_pressure;Samples;Min_cycle;Max_cycle;Signal;HPM_P1;HPM_P2
2023/06/19 04:00:39;;;;;;;2.40;0.67;;;23.70;1.00;;;;;;5943722;23;22220;-69
2023/06/19 04:03:09;;;;;;;1.00;0.87;;;23.50;1.00;;;;;;4923960;29;20559;-70
2023/06/19 04:05:38;;;;;;;1.20;0.73;;;;;;;;;;4935553;29;20469;-69
2023/06/19 04:08:07;;;;;;;2.97;1.90;;;;;;;;;;4935580;29;20528;-69
2023/06/19 04:10:35;;;;;;;1.03;0.50;;;23.40;1.00;;;;;;4934019;29;20839;-70
2023/06/19 04:13:03;;;;;;;0.80;0.60;;;23.50;1.00;;;;;;4924728;29;20538;-70
2023/06/19 04:18:03;;;;;;;1.00;0.53;;;23.50;1.00;;;;;;4928156;29;20474;-72
2023/06/19 04:20:31;;;;;;;0.73;0.50;;;23.50;1.00;;;;;;4931490;29;20497;-73
2023/06/19 04:22:59;;;;;;;3.00;2.63;;;23.50;1.00;;;;;;4919710;29;20513;-71
2023/06/19 04:25:28;;;;;;;4.20;2.00;;;23.50;1.00;;;;;;4898147;29;20461;-72
2023/06/19 04:27:55;;;;;;;1.00;0.73;;;23.40;1.00;;;;;;4918476;29;20472;-72
2023/06/19 04:30:23;;;;;;;1.20;0.97;;;23.30;1.00;;;;;;4931399;29;20454;-70
2023/06/19 04:32:52;;;;;;;3.97;3.57;;;23.10;1.00;;;;;;4922525;29;20460;-71
2023/06/19 04:35:23;;;;;;;3.57;3.23;;;23.00;1.00;;;;;;4939863;29;20457;-73
2023/06/19 04:37:51;;;;;;;1.50;1.40;;;22.80;1.00;;;;;;4917083;29;20497;-72
2023/06/19 04:40:19;;;;;;;3.00;1.80;;;22.70;1.00;;;;;;4898782;29;20569;-72
2023/06/19 04:42:47;;;;;;;1.00;0.77;;;22.60;1.00;;;;;;4922170;29;20465;-71
2023/06/19 04:45:15;;;;;;;7.63;0.97;;;;;;;;;;4924450;29;20493;-73
2023/06/19 04:47:45;;;;;;;3.60;1.40;;;22.50;1.00;;;;;;4930996;29;20469;-73
2023/06/19 04:50:22;;;;;;;1.77;1.00;;;22.50;1.00;;;;;;4934891;29;20490;-72
2023/06/19 04:52:51;;;;;;;1.90;1.23;;;22.70;1.00;;;;;;4925484;29;20458;-72
2023/06/19 04:55:19;;;;;;;0.70;0.20;;;22.90;1.00;;;;;;4900136;29;20451;-72
2023/06/19 04:57:47;;;;;;;2.30;1.90;;;22.90;1.00;;;;;;4898296;29;20511;-72
2023/06/19 05:00:18;;;;;;;1.27;0.93;;;23.00;1.00;;;;;;4897966;29;20493;-72
2023/06/19 05:02:47;;;;;;;0.70;0.10;;;23.10;1.00;;;;;;4901768;29;20857;-71
2023/06/19 05:05:15;;;;;;;2.40;1.90;;;;;;;;;;4928895;29;20526;-72
2023/06/19 05:07:46;;;;;;;1.20;0.57;;;23.10;1.00;;;;;;4936553;29;20448;-71
2023/06/19 05:10:14;;;;;;;1.30;1.20;;;23.20;1.00;;;;;;4901410;29;20587;-72
2023/06/19 05:12:42;;;;;;;1.17;0.80;;;23.30;1.00;;;;;;4903699;29;20519;-72
2023/06/19 05:15:10;;;;;;;2.50;0.83;;;23.20;1.00;;;;;;4898440;29;20461;-71
2023/06/19 05:17:38;;;;;;;0.80;0.37;;;23.30;1.00;;;;;;4897190;29;20562;-73
2023/06/19 05:20:08;;;;;;;1.30;0.87;;;23.20;1.00;;;;;;4921513;29;20497;-72
2023/06/19 05:22:37;;;;;;;0.80;0.43;;;23.20;1.00;;;;;;4934579;29;20577;-72
2023/06/19 05:25:07;;;;;;;0.73;0.27;;;23.10;1.00;;;;;;4910710;29;20457;-71
2023/06/19 05:27:35;;;;;;;0.70;0.10;;;23.30;1.00;;;;;;4927239;29;20520;-72
2023/06/19 05:30:04;;;;;;;1.63;1.30;;;23.20;1.00;;;;;;4935548;29;20450;-71
2023/06/19 05:32:32;;;;;;;0.70;0.20;;;22.40;1.00;;;;;;4935221;29;20528;-72
2023/06/19 05:35:00;;;;;;;0.90;0.63;;;23.30;1.00;;;;;;4934659;29;20457;-73
2023/06/19 05:37:27;;;;;;;0.90;0.60;;;23.40;1.00;;;;;;4923218;29;20494;-72
2023/06/19 05:39:57;;;;;;;0.80;0.33;;;;;;;;;;4900541;29;20585;-72
2023/06/19 05:42:26;;;;;;;1.07;0.60;;;;;;;;;;4915270;29;20538;-72
2023/06/19 05:44:54;;;;;;;1.90;0.73;;;23.40;1.00;;;;;;4915623;29;20513;-71
2023/06/19 05:47:25;;;;;;;1.07;0.80;;;23.20;1.00;;;;;;4915720;29;20545;-72
2023/06/19 05:49:54;;;;;;;0.80;0.40;;;23.30;1.00;;;;;;4914958;29;20865;-70
2023/06/19 05:52:22;;;;;;;2.03;1.30;;;23.40;1.00;;;;;;4914896;29;20518;-72
2023/06/19 05:54:49;;;;;;;0.70;0.20;;;23.50;1.00;;;;;;4916700;29;20464;-71
2023/06/19 05:57:20;;;;;;;2.00;1.63;;;23.50;1.00;;;;;;4907797;29;20479;-72
2023/06/19 05:59:50;;;;;;;0.80;0.37;;;23.40;1.00;;;;;;4923837;29;20530;-72
2023/06/19 06:02:19;;;;;;;1.70;1.07;;;;;;;;;;4906738;29;20449;-70
2023/06/19 06:04:47;;;;;;;0.90;0.47;;;23.30;1.00;;;;;;4915090;29;20558;-72
2023/06/19 06:07:15;;;;;;;0.90;0.67;;;;;;;;;;4915147;29;20974;-71
2023/06/19 06:09:43;;;;;;;2.17;1.20;;;23.40;1.00;;;;;;4912094;29;20481;-71
2023/06/19 06:12:12;;;;;;;0.80;0.37;;;;;;;;;;4904515;29;20457;-72
2023/06/19 06:14:41;;;;;;;0.70;0.20;;;23.70;1.00;;;;;;4899797;29;20499;-72
2023/06/19 06:17:10;;;;;;;3.47;0.60;;;23.70;1.00;;;;;;4906273;29;20516;-70
2023/06/19 06:19:38;;;;;;;0.70;0.10;;;23.90;1.00;;;;;;4900167;29;20503;-70
2023/06/19 06:22:07;;;;;;;0.70;0.17;;;24.00;1.00;;;;;;4899942;29;20448;-72
2023/06/19 06:24:35;;;;;;;1.43;0.70;;;24.20;1.00;;;;;;4899678;29;20462;-72
2023/06/19 06:27:03;;;;;;;1.40;0.80;;;24.10;1.00;;;;;;4899926;29;20502;-71
2023/06/19 06:29:31;;;;;;;0.70;0.30;;;;;;;;;;4901321;29;20551;-72
2023/06/19 06:32:05;;;;;;;0.70;0.20;;;23.90;1.00;;;;;;4900261;29;20555;-72
2023/06/19 06:34:35;;;;;;;0.80;0.30;;;23.80;1.00;;;;;;4910636;29;20454;-71
2023/06/19 06:37:03;;;;;;;0.80;0.40;;;23.80;1.00;;;;;;4923403;29;20508;-73
2023/06/19 06:39:33;;;;;;;1.00;0.73;;;23.90;1.00;;;;;;4921572;29;20454;-71
2023/06/19 06:42:01;;;;;;;0.70;0.10;;;24.00;1.00;;;;;;4913318;29;21050;-70
2023/06/19 06:44:29;;;;;;;1.37;1.07;;;24.10;1.00;;;;;;4919567;29;20460;-71
2023/06/19 06:46:57;;;;;;;3.37;2.43;;;24.10;1.00;;;;;;4931675;29;20517;-69
2023/06/19 06:49:25;;;;;;;0.80;0.43;;;24.10;1.00;;;;;;4924411;29;20511;-69
2023/06/19 06:51:55;;;;;;;1.07;0.60;;;24.20;1.00;;;;;;4934620;29;20447;-71
2023/06/19 06:54:25;;;;;;;5.50;2.77;;;24.20;1.00;;;;;;4937208;29;20451;-69
2023/06/19 06:56:56;;;;;;;3.03;0.83;;;;;;;;;;4938616;29;20481;-75
2023/06/19 06:59:24;;;;;;;0.70;0.20;;;23.90;1.00;;;;;;4920551;29;20491;-73
2023/06/19 07:01:52;;;;;;;0.70;0.10;;;24.10;1.00;;;;;;4912600;29;20531;-74
2023/06/19 07:04:20;;;;;;;0.70;0.30;;;24.20;1.00;;;;;;4937595;29;20559;-74
2023/06/19 07:06:48;;;;;;;0.70;0.10;;;24.30;1.00;;;;;;4937909;29;20516;-74
2023/06/19 07:09:21;;;;;;;0.70;0.20;;;24.40;1.00;;;;;;4928936;29;20598;-73
2023/06/19 07:11:49;;;;;;;0.70;0.30;;;24.40;1.00;;;;;;4922024;29;20449;-74
2023/06/19 07:14:20;;;;;;;0.70;0.20;;;24.50;1.00;;;;;;4910773;29;20555;-73
2023/06/19 07:16:48;;;;;;;3.17;1.60;;;24.40;1.00;;;;;;4910727;29;20496;-75
2023/06/19 07:19:16;;;;;;;1.13;0.93;;;24.30;1.00;;;;;;4908533;29;20471;-74
2023/06/19 07:21:45;;;;;;;0.70;0.10;;;24.60;1.00;;;;;;4911448;29;20538;-75
2023/06/19 07:24:16;;;;;;;0.70;0.20;;;;;;;;;;4927005;29;20462;-73
2023/06/19 07:26:48;;;;;;;0.70;0.10;;;24.90;1.00;;;;;;4902725;29;20503;-74
2023/06/19 07:29:16;;;;;;;1.83;1.57;;;24.90;1.00;;;;;;4917344;29;20467;-74
2023/06/19 07:31:44;;;;;;;1.00;0.70;;;25.10;1.00;;;;;;4922062;29;20513;-75
2023/06/19 07:34:12;;;;;;;0.70;0.20;;;25.20;1.00;;;;;;4917925;29;20886;-73
2023/06/19 07:36:42;;;;;;;0.70;0.20;;;25.20;1.00;;;;;;4909331;29;20579;-73
2023/06/19 07:39:09;;;;;;;0.70;0.20;;;25.20;1.00;;;;;;4917151;29;20463;-72
2023/06/19 07:41:38;;;;;;;0.70;0.10;;;25.20;1.00;;;;;;4935165;29;20797;-74
2023/06/19 07:44:07;;;;;;;0.70;0.20;;;25.20;1.00;;;;;;4910263;29;20957;-73
2023/06/19 07:46:35;;;;;;;1.53;0.43;;;25.10;1.00;;;;;;4929701;29;20474;-74
2023/06/19 07:49:03;;;;;;;0.70;0.10;;;25.10;1.00;;;;;;4936826;29;20447;-74
2023/06/19 07:51:31;;;;;;;0.70;0.20;;;25.10;1.00;;;;;;4900928;29;20457;-74
2023/06/19 07:53:59;;;;;;;0.83;0.50;;;25.10;1.00;;;;;;4905752;29;20550;-74
2023/06/19 07:56:27;;;;;;;0.93;0.50;;;24.90;1.00;;;;;;4929317;29;20561;-74
2023/06/19 07:58:55;;;;;;;0.90;0.30;;;24.90;1.00;;;;;;4908731;29;20819;-74
2023/06/19 08:01:24;;;;;;;1.10;0.63;;;24.70;1.00;;;;;;4927358;29;20486;-74
2023/06/19 08:03:52;;;;;;;0.70;0.20;;;24.80;1.00;;;;;;4913841;29;20460;-74
2023/06/19 08:06:20;;;;;;;0.70;0.20;;;24.80;1.00;;;;;;4913251;29;20571;-75
2023/06/19 08:08:48;;;;;;;1.33;0.57;;;24.80;1.00;;;;;;4923879;29;20973;-73
2023/06/19 08:11:16;;;;;;;0.90;0.50;;;24.80;1.00;;;;;;4922293;29;20495;-74
2023/06/19 08:13:44;;;;;;;1.90;1.70;;;24.90;1.00;;;;;;4919361;29;20503;-74
2023/06/19 08:16:12;;;;;;;3.33;1.13;;;25.00;1.00;;;;;;4913053;29;20509;-75
2023/06/19 08:18:42;;;;;;;2.23;1.27;;;24.80;1.00;;;;;;4900055;29;20452;-75
2023/06/19 08:21:10;;;;;;;1.10;0.50;;;24.50;1.00;;;;;;4915471;29;20512;-74
2023/06/19 08:23:39;;;;;;;1.50;1.00;;;24.50;1.00;;;;;;4913699;29;20464;-74
2023/06/19 08:26:08;;;;;;;0.70;0.10;;;24.80;1.00;;;;;;4922076;29;20473;-75
2023/06/19 08:28:41;;;;;;;0.70;0.20;;;24.90;1.00;;;;;;4899542;29;20461;-74
2023/06/19 08:31:09;;;;;;;0.70;0.20;;;25.10;1.00;;;;;;4902522;29;20575;-75
2023/06/19 08:33:37;;;;;;;0.70;0.20;;;25.30;1.00;;;;;;4909328;29;20469;-71
2023/06/19 08:36:06;;;;;;;0.70;0.20;;;25.40;1.00;;;;;;4904832;29;20473;-73
2023/06/19 08:38:34;;;;;;;0.70;0.10;;;25.50;1.00;;;;;;4904238;29;20448;-75
2023/06/19 08:41:02;;;;;;;0.70;0.10;;;25.40;1.00;;;;;;4900073;29;20544;-75
2023/06/19 08:43:30;;;;;;;0.70;0.30;;;25.80;1.00;;;;;;4904906;29;20893;-75
2023/06/19 08:46:08;;;;;;;1.63;0.60;;;25.80;1.00;;;;;;4905653;29;20501;-74
2023/06/19 08:48:37;;;;;;;0.80;0.40;;;25.80;1.00;;;;;;4910840;29;20468;-74
2023/06/19 08:51:06;;;;;;;0.90;0.53;;;25.70;1.00;;;;;;4908783;29;20539;-73
2023/06/19 08:53:36;;;;;;;0.90;0.70;;;25.70;1.00;;;;;;4913660;29;20547;-74
2023/06/19 08:56:05;;;;;;;0.70;0.10;;;25.90;1.00;;;;;;4898076;29;20541;-73
2023/06/19 08:58:33;;;;;;;0.70;0.20;;;26.00;1.00;;;;;;4902451;29;20453;-71
2023/06/19 09:01:01;;;;;;;0.70;0.30;;;26.00;1.00;;;;;;4900837;29;20492;-72
2023/06/19 09:03:29;;;;;;;0.70;0.20;;;26.10;1.00;;;;;;4916570;29;20510;-73
2023/06/19 09:05:59;;;;;;;1.27;0.40;;;26.00;1.00;;;;;;4919292;29;20862;-72
2023/06/19 09:08:29;;;;;;;1.43;1.27;;;26.00;1.00;;;;;;4925442;29;20895;-72
2023/06/19 09:10:58;;;;;;;0.70;0.27;;;26.10;1.00;;;;;;4911643;29;20488;-73
2023/06/19 09:13:28;;;;;;;2.00;0.90;;;26.00;1.00;;;;;;4908345;29;20500;-72
2023/06/19 09:16:01;;;;;;;0.70;0.10;;;26.10;1.00;;;;;;4916326;29;20975;-73
2023/06/19 09:18:31;;;;;;;1.23;0.53;;;26.10;1.00;;;;;;4903410;29;20543;-72
2023/06/19 09:20:59;;;;;;;0.70;0.30;;;25.80;1.00;;;;;;4896896;29;20544;-71
2023/06/19 09:23:28;;;;;;;3.43;1.80;;;25.70;1.00;;;;;;4896430;29;20517;-74
2023/06/19 09:25:58;;;;;;;0.70;0.30;;;25.60;1.00;;;;;;4897632;29;20500;-73
2023/06/19 09:28:28;;;;;;;1.33;1.00;;;25.60;1.00;;;;;;4897004;29;21101;-73
2023/06/19 09:30:59;;;;;;;0.97;0.37;;;25.80;1.00;;;;;;4896811;29;20452;-72
2023/06/19 09:33:28;;;;;;;1.67;1.20;;;25.80;1.00;;;;;;4897912;29;20548;-74
2023/06/19 09:35:58;;;;;;;0.70;0.23;;;25.70;1.00;;;;;;4897693;29;20473;-73
2023/06/19 09:38:29;;;;;;;0.70;0.20;;;25.70;1.00;;;;;;4897053;29;20469;-73
2023/06/19 09:40:59;;;;;;;0.70;0.20;;;26.00;1.00;;;;;;4924522;29;20447;-74
2023/06/19 09:43:34;;;;;;;0.70;0.10;;;26.30;1.00;;;;;;4924337;29;20481;-73
2023/06/19 09:46:04;;;;;;;1.53;0.73;;;26.40;1.00;;;;;;4896953;29;20464;-74
2023/06/19 09:48:34;;;;;;;1.17;0.30;;;26.40;1.00;;;;;;4897665;29;20452;-72
2023/06/19 09:51:10;;;;;;;0.70;0.20;;;26.60;1.00;;;;;;4896990;29;20449;-72
2023/06/19 09:53:40;;;;;;;0.90;0.40;;;26.80;1.00;;;;;;4903613;29;20476;-72
2023/06/19 09:56:08;;;;;;;1.20;1.00;;;26.90;1.00;;;;;;4935850;29;20532;-72
2023/06/19 09:58:38;;;;;;;0.70;0.20;;;26.70;1.00;;;;;;4922506;29;20816;-73
2023/06/19 10:01:07;;;;;;;0.70;0.20;;;26.80;1.00;;;;;;4916416;29;20452;-72
2023/06/19 10:03:37;;;;;;;0.70;0.30;;;26.80;1.00;;;;;;4935494;29;20483;-74
2023/06/19 10:06:06;;;;;;;0.90;0.67;;;27.00;1.00;;;;;;4904578;29;20480;-73
2023/06/19 10:08:42;;;;;;;0.70;0.10;;;27.00;1.00;;;;;;4903891;29;20456;-73
2023/06/19 10:11:10;;;;;;;1.10;0.90;;;27.10;1.00;;;;;;4911584;29;20465;-74
2023/06/19 10:13:41;;;;;;;1.53;0.97;;;26.90;1.00;;;;;;4925601;29;20916;-73
2023/06/19 10:16:21;;;;;;;4.63;0.77;;;26.80;1.00;;;;;;4936412;29;20479;-73
2023/06/19 10:18:49;;;;;;;1.57;0.60;;;26.80;1.00;;;;;;4935051;29;20506;-74
2023/06/19 10:21:18;;;;;;;0.70;0.27;;;26.90;1.00;;;;;;4934910;29;21017;-75
2023/06/19 10:23:55;;;;;;;0.70;0.20;;;27.00;1.00;;;;;;4933976;29;20487;-75
2023/06/19 10:26:31;;;;;;;0.93;0.67;;;27.00;1.00;;;;;;4934251;29;21035;-74
2023/06/19 10:28:59;;;;;;;0.70;0.23;;;;;;;;;;4906515;29;20879;-73
2023/06/19 10:31:28;;;;;;;0.90;0.40;;;26.90;1.00;;;;;;4896182;29;20537;-74
2023/06/19 10:33:56;;;;;;;0.70;0.30;;;27.00;1.00;;;;;;4895908;29;20989;-73
2023/06/19 10:36:25;;;;;;;0.70;0.20;;;27.30;1.00;;;;;;4896312;29;20477;-74
2023/06/19 10:38:55;;;;;;;0.80;0.20;;;27.30;1.00;;;;;;4899386;29;20446;-74
2023/06/19 10:41:25;;;;;;;1.00;0.50;;;27.10;1.00;;;;;;4898100;29;20457;-73
2023/06/19 10:43:54;;;;;;;0.93;0.63;;;27.10;1.00;;;;;;4896012;29;20564;-73
2023/06/19 10:46:23;;;;;;;2.20;1.80;;;27.10;1.00;;;;;;4896720;29;20680;-73
2023/06/19 10:48:56;;;;;;;5.37;1.17;;;27.00;1.00;;;;;;4897976;29;20456;-73
2023/06/19 10:51:24;;;;;;;1.37;0.47;;;26.80;1.00;;;;;;4896432;29;20537;-73
2023/06/19 10:53:56;;;;;;;0.70;0.20;;;26.60;1.00;;;;;;4895712;29;21178;-74
2023/06/19 10:56:25;;;;;;;3.70;1.70;;;26.90;1.00;;;;;;4895733;29;20992;-73
2023/06/19 10:58:59;;;;;;;1.33;0.83;;;26.90;1.00;;;;;;4896153;29;20453;-74
2023/06/19 11:01:34;;;;;;;0.70;0.20;;;27.00;1.00;;;;;;4899478;29;20852;-72
2023/06/19 11:04:04;;;;;;;0.70;0.10;;;27.00;1.00;;;;;;4899425;29;20519;-74
2023/06/19 11:06:33;;;;;;;0.80;0.40;;;27.20;1.00;;;;;;4899645;29;20477;-74
2023/06/19 11:09:05;;;;;;;0.90;0.43;;;27.30;1.00;;;;;;4899558;29;20548;-74
2023/06/19 11:11:38;;;;;;;1.30;0.73;;;27.30;1.00;;;;;;4911865;29;20480;-73
2023/06/19 11:14:06;;;;;;;1.40;0.97;;;27.20;1.00;;;;;;4918684;29;20500;-75
2023/06/19 11:16:34;;;;;;;0.70;0.20;;;27.20;1.00;;;;;;4918100;29;20902;-73
2023/06/19 11:19:02;;;;;;;0.70;0.20;;;27.20;1.00;;;;;;4900934;29;20457;-74
2023/06/19 11:21:32;;;;;;;0.70;0.20;;;27.30;1.00;;;;;;4899342;29;20445;-75
2023/06/19 11:24:00;;;;;;;0.70;0.10;;;27.20;1.00;;;;;;4901567;29;20495;-75
2023/06/19 11:26:31;;;;;;;1.43;0.57;;;27.20;1.00;;;;;;4902642;29;20520;-74
2023/06/19 11:28:59;;;;;;;0.70;0.10;;;27.20;1.00;;;;;;4898950;29;21046;-74
2023/06/19 11:31:27;;;;;;;0.70;0.10;;;27.20;1.00;;;;;;4899064;29;20528;-74
2023/06/19 11:33:59;;;;;;;1.67;0.40;;;27.30;1.00;;;;;;4898914;29;20478;-75
2023/06/19 11:36:27;;;;;;;1.10;0.60;;;27.50;1.00;;;;;;4900633;29;20484;-74
2023/06/19 11:38:55;;;;;;;2.00;1.00;;;27.50;1.00;;;;;;4899328;29;20460;-74
2023/06/19 11:41:28;;;;;;;2.40;0.53;;;27.50;1.00;;;;;;4904680;29;20450;-74
2023/06/19 11:44:05;;;;;;;0.70;0.10;;;27.40;1.00;;;;;;4902297;29;20481;-73
2023/06/19 11:46:34;;;;;;;0.70;0.10;;;27.50;1.00;;;;;;4906456;29;20479;-74
2023/06/19 11:49:10;;;;;;;0.70;0.20;;;27.60;1.00;;;;;;4918498;29;20892;-75
2023/06/19 11:51:37;;;;;;;0.70;0.20;;;27.70;1.00;;;;;;4919011;29;20498;-73
2023/06/19 11:54:08;;;;;;;0.70;0.20;;;27.80;1.00;;;;;;4918341;29;20551;-74
2023/06/19 11:56:36;;;;;;;0.70;0.20;;;27.90;1.00;;;;;;4920078;29;20468;-74
2023/06/19 11:59:05;;;;;;;0.70;0.20;;;28.00;1.00;;;;;;4924413;29;20437;-72
2023/06/19 12:01:34;;;;;;;1.63;0.60;;;28.00;1.00;;;;;;4919119;29;20518;-73
2023/06/19 12:04:02;;;;;;;0.70;0.20;;;28.20;1.00;;;;;;4899252;29;20549;-73
2023/06/19 12:06:31;;;;;;;0.70;0.10;;;28.20;1.00;;;;;;4911839;29;20473;-72
2023/06/19 12:08:59;;;;;;;1.40;1.17;;;28.30;1.00;;;;;;4899144;29;20809;-73
2023/06/19 12:11:27;;;;;;;0.70;0.20;;;28.30;1.00;;;;;;4898008;29;20449;-74
2023/06/19 12:13:55;;;;;;;0.70;0.13;;;28.30;1.00;;;;;;4913127;29;20892;-74
2023/06/19 12:16:25;;;;;;;0.70;0.13;;;28.70;1.00;;;;;;4910115;29;20483;-74
2023/06/19 12:18:54;;;;;;;0.70;0.10;;;28.90;1.00;;;;;;4902870;29;20762;-74
2023/06/19 12:21:22;;;;;;;0.70;0.20;;;28.90;1.00;;;;;;4918138;29;20796;-73
2023/06/19 12:24:05;;;;;;;0.70;0.23;;;29.00;1.00;;;;;;4905965;29;20489;-75
2023/06/19 12:26:36;;;;;;;0.70;0.10;;;29.10;1.00;;;;;;4914280;29;20946;-73
2023/06/19 12:29:05;;;;;;;0.70;0.20;;;29.10;1.00;;;;;;4921345;29;20445;-73
2023/06/19 12:31:36;;;;;;;0.70;0.10;;;29.30;1.00;;;;;;4908920;29;20540;-74
2023/06/19 12:34:06;;;;;;;0.70;0.10;;;29.50;1.00;;;;;;4900778;29;20547;-75
2023/06/19 12:36:54;;;;;;;0.70;0.20;;;29.50;1.00;;;;;;4919242;29;20464;-75
2023/06/19 12:39:22;;;;;;;0.70;0.10;;;29.50;1.00;;;;;;4935796;29;20451;-75
2023/06/19 12:41:50;;;;;;;0.70;0.17;;;29.50;1.00;;;;;;4921515;29;20446;-73
2023/06/19 12:44:18;;;;;;;0.73;0.23;;;29.30;1.00;;;;;;4922256;29;20563;-74
2023/06/19 12:46:47;;;;;;;0.70;0.23;;;29.20;1.00;;;;;;4913505;29;20503;-74
2023/06/19 12:49:15;;;;;;;2.10;0.87;;;29.20;1.00;;;;;;4930590;29;20452;-73
2023/06/19 12:51:43;;;;;;;1.60;0.73;;;29.10;1.00;;;;;;4917634;29;20462;-75
2023/06/19 12:54:11;;;;;;;0.70;0.10;;;29.00;1.00;;;;;;4916750;29;20489;-75
2023/06/19 12:56:39;;;;;;;0.70;0.20;;;29.10;1.00;;;;;;4908533;29;20470;-74
2023/06/19 12:59:06;;;;;;;0.70;0.20;;;29.10;1.00;;;;;;4915071;29;20850;-76
2023/06/19 13:01:35;;;;;;;0.70;0.10;;;29.00;1.00;;;;;;4920880;29;20441;-72
2023/06/19 13:04:04;;;;;;;1.07;0.40;;;28.80;1.00;;;;;;4931548;29;20476;-73
2023/06/19 13:06:32;;;;;;;0.70;0.20;;;28.80;1.00;;;;;;4924361;29;20571;-74
2023/06/19 13:09:00;;;;;;;0.90;0.53;;;28.80;1.00;;;;;;4919575;29;20452;-73
2023/06/19 13:11:34;;;;;;;0.70;0.10;;;28.70;1.00;;;;;;4930685;29;20452;-74
2023/06/19 13:14:01;;;;;;;0.70;0.10;;;28.80;1.00;;;;;;4941940;29;20516;-72
2023/06/19 13:16:31;;;;;;;0.70;0.20;;;28.90;1.00;;;;;;4940535;29;20492;-75
2023/06/19 13:19:14;;;;;;;0.70;0.10;;;29.00;1.00;;;;;;4939390;29;20862;-74
2023/06/19 13:21:42;;;;;;;0.70;0.20;;;29.00;1.00;;;;;;4939530;29;20975;-75
2023/06/19 13:24:11;;;;;;;0.87;0.50;;;28.70;1.00;;;;;;4943779;29;20510;-74
2023/06/19 13:26:41;;;;;;;0.70;0.20;;;28.60;1.00;;;;;;4918447;29;20533;-72
2023/06/19 13:29:09;;;;;;;0.70;0.10;;;;;;;;;;4915047;29;20442;-74
2023/06/19 13:31:37;;;;;;;4.87;2.10;;;28.50;1.00;;;;;;4915186;29;20648;-75
2023/06/19 13:34:06;;;;;;;0.80;0.20;;;28.50;1.00;;;;;;4921593;29;20445;-73
2023/06/19 13:36:36;;;;;;;0.70;0.10;;;;;;;;;;4912552;29;20489;-75
2023/06/19 13:39:04;;;;;;;0.70;0.10;;;28.50;1.00;;;;;;4911291;29;20525;-74
2023/06/19 13:41:32;;;;;;;1.60;1.50;;;28.50;1.00;;;;;;4931702;29;20528;-74
2023/06/19 13:44:02;;;;;;;0.70;0.20;;;28.50;1.00;;;;;;4925489;29;20504;-72
2023/06/19 13:46:31;;;;;;;1.63;1.53;;;28.60;1.00;;;;;;4931806;29;20525;-73
2023/06/19 13:49:02;;;;;;;0.70;0.10;;;28.70;1.00;;;;;;4925061;29;20464;-70
2023/06/19 13:51:30;;;;;;;0.80;0.40;;;28.70;1.00;;;;;;4925228;29;20477;-75
2023/06/19 13:54:02;;;;;;;0.70;0.20;;;28.80;1.00;;;;;;4928716;29;20821;-71
2023/06/19 13:56:30;;;;;;;1.97;0.77;;;28.90;1.00;;;;;;4928991;29;20521;-74
2023/06/19 13:58:59;;;;;;;0.70;0.20;;;28.90;1.00;;;;;;4923088;29;20921;-73
2023/06/19 14:01:27;;;;;;;0.70;0.20;;;29.20;1.00;;;;;;4922995;29;20543;-73
2023/06/19 14:03:57;;;;;;;0.70;0.10;;;29.30;1.00;;;;;;4926364;29;20449;-73
2023/06/19 14:06:25;;;;;;;0.70;0.10;;;29.40;1.00;;;;;;4924899;29;20565;-73
2023/06/19 14:08:55;;;;;;;0.70;0.30;;;29.40;1.00;;;;;;4926321;29;20459;-74
2023/06/19 14:11:28;;;;;;;0.70;0.20;;;29.40;1.00;;;;;;4909303;29;20486;-74
2023/06/19 14:13:57;;;;;;;0.70;0.30;;;;;;;;;;4909367;29;20452;-72
2023/06/19 14:16:25;;;;;;;0.70;0.20;;;29.30;1.00;;;;;;4905395;29;20478;-75
2023/06/19 14:18:53;;;;;;;0.97;0.47;;;29.10;1.00;;;;;;4913187;29;20457;-74
2023/06/19 14:21:23;;;;;;;0.80;0.40;;;29.10;1.00;;;;;;4925095;29;20453;-74
2023/06/19 14:23:51;;;;;;;0.70;0.10;;;29.10;1.00;;;;;;4926141;29;20454;-75
2023/06/19 14:26:19;;;;;;;0.70;0.10;;;29.20;1.00;;;;;;4927734;29;20562;-76
2023/06/19 14:28:48;;;;;;;0.70;0.20;;;29.20;1.00;;;;;;4928088;29;20453;-72
2023/06/19 14:31:16;;;;;;;0.70;0.10;;;29.30;1.00;;;;;;4928101;29;20460;-73
2023/06/19 14:33:44;;;;;;;0.70;0.20;;;;;;;;;;4928752;29;20418;-75
2023/06/19 14:36:18;;;;;;;0.70;0.10;;;29.40;1.00;;;;;;4928851;29;20493;-73
2023/06/19 14:38:46;;;;;;;0.70;0.20;;;29.40;1.00;;;;;;4920304;29;20467;-73
2023/06/19 14:41:14;;;;;;;0.70;0.10;;;29.20;1.00;;;;;;4911650;29;20470;-75
2023/06/19 14:43:42;;;;;;;0.70;0.10;;;29.20;1.00;;;;;;4910824;29;20473;-73
2023/06/19 14:46:15;;;;;;;0.70;0.30;;;29.20;1.00;;;;;;4910417;29;20492;-72
2023/06/19 14:49:03;;;;;;;0.70;0.20;;;29.20;1.00;;;;;;4908017;29;20520;-73
2023/06/19 14:51:31;;;;;;;1.63;1.33;;;29.40;1.00;;;;;;4904364;29;20514;-75
2023/06/19 14:53:59;;;;;;;1.23;0.83;;;29.50;1.00;;;;;;4906455;29;20460;-73
2023/06/19 14:56:27;;;;;;;0.70;0.20;;;29.30;1.00;;;;;;4905787;29;20542;-75
2023/06/19 14:58:55;;;;;;;0.70;0.30;;;29.30;1.00;;;;;;4910808;29;20484;-73
2023/06/19 15:01:26;;;;;;;0.70;0.20;;;29.30;1.00;;;;;;4907368;29;20957;-75
2023/06/19 15:03:56;;;;;;;0.70;0.30;;;;;;;;;;4920545;29;20489;-74
2023/06/19 15:06:25;;;;;;;0.70;0.10;;;29.40;1.00;;;;;;4931099;29;20510;-75
2023/06/19 15:08:52;;;;;;;0.70;0.10;;;29.60;1.00;;;;;;4913413;29;20826;-75
2023/06/19 15:11:21;;;;;;;0.70;0.10;;;29.60;1.00;;;;;;4920683;29;20490;-75
2023/06/19 15:13:50;;;;;;;0.70;0.20;;;29.70;1.00;;;;;;4916904;29;20490;-73
2023/06/19 15:16:21;;;;;;;0.70;0.10;;;29.80;1.00;;;;;;4927435;29;20459;-74
2023/06/19 15:18:51;;;;;;;0.70;0.20;;;29.80;1.00;;;;;;4931873;29;20443;-73
2023/06/19 15:21:19;;;;;;;0.70;0.37;;;29.90;1.00;;;;;;4919567;29;20459;-75
2023/06/19 15:23:48;;;;;;;0.70;0.10;;;29.80;1.00;;;;;;4918271;29;20510;-73
2023/06/19 15:26:18;;;;;;;1.63;0.33;;;30.00;1.00;;;;;;4916322;29;20486;-75
2023/06/19 15:28:47;;;;;;;0.70;0.10;;;29.90;1.00;;;;;;4926198;29;20447;-75
2023/06/19 15:31:16;;;;;;;0.70;0.20;;;29.90;1.00;;;;;;4935081;29;20561;-76
2023/06/19 15:33:44;;;;;;;0.70;0.20;;;29.90;1.00;;;;;;4936681;29;20467;-74
2023/06/19 15:36:14;;;;;;;0.70;0.10;;;29.70;1.00;;;;;;4934533;29;20978;-75
2023/06/19 15:38:42;;;;;;;0.70;0.20;;;29.70;1.00;;;;;;4929286;29;20460;-75
2023/06/19 15:41:10;;;;;;;0.70;0.10;;;29.80;1.00;;;;;;4929065;29;20443;-75
2023/06/19 15:43:39;;;;;;;0.70;0.20;;;29.70;1.00;;;;;;4922886;29;20469;-74
2023/06/19 15:46:08;;;;;;;0.70;0.10;;;29.50;1.00;;;;;;4911967;29;20491;-74
2023/06/19 15:48:36;;;;;;;0.70;0.20;;;29.50;1.00;;;;;;4913736;29;20470;-75
2023/06/19 15:51:04;;;;;;;2.03;1.37;;;29.40;1.00;;;;;;4911753;29;20451;-73
2023/06/19 15:53:33;;;;;;;0.70;0.20;;;29.40;1.00;;;;;;4905660;29;20447;-71
2023/06/19 15:56:01;;;;;;;0.70;0.10;;;29.40;1.00;;;;;;4904062;29;20497;-74
2023/06/19 15:58:30;;;;;;;0.70;0.10;;;29.40;1.00;;;;;;4915995;29;20448;-73
2023/06/19 16:00:59;;;;;;;0.70;0.20;;;29.40;1.00;;;;;;4912270;29;20926;-74
2023/06/19 16:03:30;;;;;;;0.70;0.20;;;29.40;1.00;;;;;;4921007;29;20950;-75
2023/06/19 16:05:58;;;;;;;0.70;0.10;;;29.50;1.00;;;;;;4925659;29;20497;-73
2023/06/19 16:08:36;;;;;;;0.70;0.10;;;29.50;1.00;;;;;;4911868;29;20486;-74
2023/06/19 16:11:04;;;;;;;0.70;0.20;;;29.50;1.00;;;;;;4922912;29;20455;-74
2023/06/19 16:13:33;;;;;;;0.70;0.20;;;29.50;1.00;;;;;;4920118;29;20455;-75
2023/06/19 16:16:01;;;;;;;0.70;0.20;;;29.50;1.00;;;;;;4922130;29;20447;-75
2023/06/19 16:18:30;;;;;;;0.70;0.20;;;29.50;1.00;;;;;;4914022;29;20456;-76
2023/06/19 16:20:58;;;;;;;0.70;0.20;;;29.50;1.00;;;;;;4926006;29;20461;-75
2023/06/19 16:23:26;;;;;;;0.70;0.13;;;29.60;1.00;;;;;;4916060;29;20507;-74
2023/06/19 16:25:56;;;;;;;0.70;0.10;;;29.60;1.00;;;;;;4914357;29;20490;-73
2023/06/19 16:28:25;;;;;;;0.70;0.10;;;29.60;1.00;;;;;;4915317;29;20463;-74
2023/06/19 16:30:53;;;;;;;0.70;0.10;;;29.60;1.00;;;;;;4929922;29;20450;-74
2023/06/19 16:33:21;;;;;;;0.70;0.20;;;29.60;1.00;;;;;;4924079;29;20462;-75
2023/06/19 16:35:49;;;;;;;0.70;0.17;;;29.40;1.00;;;;;;4914886;29;20497;-74
2023/06/19 16:38:16;;;;;;;0.70;0.10;;;29.40;1.00;;;;;;4915505;29;20550;-74
2023/06/19 16:40:44;;;;;;;0.70;0.20;;;29.40;1.00;;;;;;4919367;29;20453;-76
2023/06/19 16:43:14;;;;;;;0.70;0.20;;;29.50;1.00;;;;;;4907588;29;20810;-76
2023/06/19 16:45:41;;;;;;;0.70;0.10;;;29.60;1.00;;;;;;4907971;29;20918;-74
2023/06/19 16:48:09;;;;;;;0.70;0.20;;;29.50;1.00;;;;;;4913578;29;20478;-75
2023/06/19 16:50:38;;;;;;;0.70;0.20;;;29.60;1.00;;;;;;4903357;29;20455;-75
2023/06/19 16:53:06;;;;;;;0.87;0.40;;;29.60;1.00;;;;;;4913512;29;20455;-73
2023/06/19 16:55:34;;;;;;;0.70;0.20;;;29.70;1.00;;;;;;4900969;29;20496;-76
2023/06/19 16:58:03;;;;;;;0.70;0.13;;;;;;;;;;4912462;29;20513;-76
2023/06/19 17:00:32;;;;;;;0.70;0.20;;;29.80;1.00;;;;;;4901422;29;20456;-74
2023/06/19 17:03:00;;;;;;;0.70;0.20;;;29.80;1.00;;;;;;4906819;29;20453;-76
2023/06/19 17:05:28;;;;;;;0.70;0.10;;;29.80;1.00;;;;;;4907196;29;20462;-73
2023/06/19 17:07:56;;;;;;;1.27;0.60;;;29.80;1.00;;;;;;4905542;29;20459;-76
2023/06/19 17:10:24;;;;;;;0.70;0.20;;;29.50;1.00;;;;;;4914566;29;20494;-76
2023/06/19 17:12:52;;;;;;;0.83;0.17;;;29.50;1.00;;;;;;4917516;29;20821;-72
2023/06/19 17:15:20;;;;;;;0.70;0.20;;;29.50;1.00;;;;;;4906527;29;20463;-73